Terminal Aerodrome Forecast
Issued by NWS

Home | Current Version | Previous Version | Text Only | Print | Product List | Glossary On
Versions: 1 2 3 4 5 6 7 8 9 10 11 12
359
FTUS46 KMFR 291138
TAFLMT
TAF
KLMT 291138Z 2912/3012 31008KT P6SM FEW060 SCT120
     FM291700 30011KT P6SM SCT050 BKN100
     FM291900 32014G23KT P6SM SCT050 BKN080
     FM292100 33020G30KT P6SM SCT040 BKN060
     FM300300 33013KT P6SM BKN040
     FM300600 32008KT P6SM SCT035=

USA.gov is the U.S. government's official web portal to all federal, state and local government web resources and services.